sensor_id;sensor_type;location;lat;lon;timestamp;pressure;altitude;pressure_sealevel;temperature;humidity
24996;BME280;13016;52.162;21.034;2023-04-25T00:05:23;99115.81;;;17.98;50.37
24996;BME280;13016;52.162;21.034;2023-04-25T00:11:24;99115.63;;;17.88;50.82
24996;BME280;13016;52.162;21.034;2023-04-25T00:17:24;99113.12;;;17.81;51.66
24996;BME280;13016;52.162;21.034;2023-04-25T00:23:24;99118.10;;;17.82;51.67
24996;BME280;13016;52.162;21.034;2023-04-25T00:29:24;99116.51;;;17.66;52.30
24996;BME280;13016;52.162;21.034;2023-04-25T00:35:25;99116.63;;;17.75;51.91
24996;BME280;13016;52.162;21.034;2023-04-25T00:41:26;99115.92;;;17.68;52.51
24996;BME280;13016;52.162;21.034;2023-04-25T00:47:27;99114.89;;;17.36;53.62
24996;BME280;13016;52.162;21.034;2023-04-25T00:53:28;99121.73;;;17.46;53.45
24996;BME280;13016;52.162;21.034;2023-04-25T00:59:28;99125.70;;;17.65;52.71
24996;BME280;13016;52.162;21.034;2023-04-25T01:05:29;99129.06;;;17.39;53.65
24996;BME280;13016;52.162;21.034;2023-04-25T01:11:29;99125.96;;;17.40;53.93
24996;BME280;13016;52.162;21.034;2023-04-25T01:17:29;99120.17;;;17.49;53.73
24996;BME280;13016;52.162;21.034;2023-04-25T01:23:31;99118.84;;;17.43;54.04
24996;BME280;13016;52.162;21.034;2023-04-25T01:29:32;99120.49;;;17.46;54.05
24996;BME280;13016;52.162;21.034;2023-04-25T01:35:33;99119.98;;;17.41;54.41
24996;BME280;13016;52.162;21.034;2023-04-25T01:41:33;99124.02;;;17.48;54.22
24996;BME280;13016;52.162;21.034;2023-04-25T01:47:34;99124.41;;;17.46;54.59
24996;BME280;13016;52.162;21.034;2023-04-25T01:53:34;99121.70;;;17.32;56.27
24996;BME280;13016;52.162;21.034;2023-04-25T01:59:34;99123.58;;;17.38;57.21
24996;BME280;13016;52.162;21.034;2023-04-25T02:05:36;99118.60;;;17.44;57.68
24996;BME280;13016;52.162;21.034;2023-04-25T02:11:37;99111.27;;;17.48;57.88
24996;BME280;13016;52.162;21.034;2023-04-25T02:17:37;99110.16;;;17.38;58.23
24996;BME280;13016;52.162;21.034;2023-04-25T02:23:37;99096.41;;;17.43;58.09
24996;BME280;13016;52.162;21.034;2023-04-25T02:29:38;99102.78;;;17.24;58.84
24996;BME280;13016;52.162;21.034;2023-04-25T02:35:38;99108.66;;;17.23;58.98
24996;BME280;13016;52.162;21.034;2023-04-25T02:41:38;99104.58;;;17.27;58.79
24996;BME280;13016;52.162;21.034;2023-04-25T02:47:38;99101.60;;;17.23;58.68
24996;BME280;13016;52.162;21.034;2023-04-25T02:53:39;99093.09;;;17.25;58.62
24996;BME280;13016;52.162;21.034;2023-04-25T02:59:39;99091.20;;;17.11;58.88
24996;BME280;13016;52.162;21.034;2023-04-25T03:05:39;99089.71;;;17.04;59.01
24996;BME280;13016;52.162;21.034;2023-04-25T03:11:39;99087.05;;;17.00;59.15
24996;BME280;13016;52.162;21.034;2023-04-25T03:17:40;99089.33;;;16.95;59.39
24996;BME280;13016;52.162;21.034;2023-04-25T03:23:40;99095.60;;;16.90;59.63
24996;BME280;13016;52.162;21.034;2023-04-25T03:29:40;99100.05;;;16.93;60.06
24996;BME280;13016;52.162;21.034;2023-04-25T03:35:40;99100.66;;;16.94;60.19
24996;BME280;13016;52.162;21.034;2023-04-25T03:41:41;99108.34;;;16.96;60.34
24996;BME280;13016;52.162;21.034;2023-04-25T03:47:41;99110.61;;;16.86;60.96
24996;BME280;13016;52.162;21.034;2023-04-25T03:53:41;99116.24;;;16.96;60.75
24996;BME280;13016;52.162;21.034;2023-04-25T03:59:41;99118.54;;;17.15;60.07
24996;BME280;13016;52.162;21.034;2023-04-25T04:05:42;99117.33;;;17.16;59.66
24996;BME280;13016;52.162;21.034;2023-04-25T04:11:42;99119.43;;;17.12;59.46
24996;BME280;13016;52.162;21.034;2023-04-25T04:17:42;99129.15;;;17.12;59.37
24996;BME280;13016;52.162;21.034;2023-04-25T04:23:43;99128.31;;;17.22;59.04
24996;BME280;13016;52.162;21.034;2023-04-25T04:29:43;99127.59;;;17.07;59.34
24996;BME280;13016;52.162;21.034;2023-04-25T04:35:43;99134.13;;;17.14;59.04
24996;BME280;13016;52.162;21.034;2023-04-25T04:41:44;99140.22;;;17.32;58.63
24996;BME280;13016;52.162;21.034;2023-04-25T04:47:44;99149.34;;;17.35;58.41
24996;BME280;13016;52.162;21.034;2023-04-25T04:53:44;99148.86;;;17.23;58.83
24996;BME280;13016;52.162;21.034;2023-04-25T04:59:44;99155.04;;;17.25;59.05
24996;BME280;13016;52.162;21.034;2023-04-25T05:05:45;99148.38;;;17.37;59.30
24996;BME280;13016;52.162;21.034;2023-04-25T05:11:45;99148.91;;;17.41;59.60
24996;BME280;13016;52.162;21.034;2023-04-25T05:17:45;99156.02;;;17.36;59.70
24996;BME280;13016;52.162;21.034;2023-04-25T05:23:46;99157.55;;;17.20;60.27
24996;BME280;13016;52.162;21.034;2023-04-25T05:29:46;99157.88;;;17.17;60.56
24996;BME280;13016;52.162;21.034;2023-04-25T05:35:46;99160.59;;;16.92;61.31
24996;BME280;13016;52.162;21.034;2023-04-25T05:41:47;99160.53;;;16.84;61.45
24996;BME280;13016;52.162;21.034;2023-04-25T05:47:48;99162.07;;;16.78;61.57
24996;BME280;13016;52.162;21.034;2023-04-25T05:53:48;99166.98;;;16.95;61.13
24996;BME280;13016;52.162;21.034;2023-04-25T05:59:48;99170.05;;;17.10;60.68
24996;BME280;13016;52.162;21.034;2023-04-25T06:05:49;99172.65;;;17.05;60.31
24996;BME280;13016;52.162;21.034;2023-04-25T06:11:49;99183.21;;;17.08;60.30
24996;BME280;13016;52.162;21.034;2023-04-25T06:17:49;99198.25;;;16.94;60.22
24996;BME280;13016;52.162;21.034;2023-04-25T06:23:50;99214.35;;;16.85;60.55
24996;BME280;13016;52.162;21.034;2023-04-25T06:29:50;99221.83;;;16.90;60.67
24996;BME280;13016;52.162;21.034;2023-04-25T06:35:50;99224.93;;;16.91;60.91
24996;BME280;13016;52.162;21.034;2023-04-25T06:41:51;99222.25;;;16.75;61.54
24996;BME280;13016;52.162;21.034;2023-04-25T06:47:51;99217.36;;;16.45;62.11
24996;BME280;13016;52.162;21.034;2023-04-25T06:53:52;99208.99;;;16.29;61.81
24996;BME280;13016;52.162;21.034;2023-04-25T06:59:52;99210.08;;;16.22;62.24
24996;BME280;13016;52.162;21.034;2023-04-25T07:05:53;99208.29;;;16.50;61.96
24996;BME280;13016;52.162;21.034;2023-04-25T07:11:53;99211.40;;;16.39;62.31
24996;BME280;13016;52.162;21.034;2023-04-25T07:17:53;99207.60;;;16.57;61.78
24996;BME280;13016;52.162;21.034;2023-04-25T07:23:53;99204.29;;;16.63;61.82
24996;BME280;13016;52.162;21.034;2023-04-25T07:29:54;99210.31;;;16.78;60.93
24996;BME280;13016;52.162;21.034;2023-04-25T07:35:54;99219.34;;;16.87;59.89
24996;BME280;13016;52.162;21.034;2023-04-25T07:41:55;99221.03;;;17.08;59.83
24996;BME280;13016;52.162;21.034;2023-04-25T07:47:55;99221.88;;;17.13;59.25
24996;BME280;13016;52.162;21.034;2023-04-25T07:53:55;99222.83;;;17.04;58.74
24996;BME280;13016;52.162;21.034;2023-04-25T07:59:56;99225.44;;;16.91;58.89
24996;BME280;13016;52.162;21.034;2023-04-25T08:05:56;99226.17;;;16.85;58.94
24996;BME280;13016;52.162;21.034;2023-04-25T08:11:56;99231.78;;;16.85;59.18
24996;BME280;13016;52.162;21.034;2023-04-25T08:17:57;99240.11;;;16.69;59.51
24996;BME280;13016;52.162;21.034;2023-04-25T08:23:57;99245.80;;;16.63;58.96
24996;BME280;13016;52.162;21.034;2023-04-25T08:29:57;99255.13;;;16.62;58.19
24996;BME280;13016;52.162;21.034;2023-04-25T08:35:57;99257.77;;;16.48;57.97
24996;BME280;13016;52.162;21.034;2023-04-25T08:41:58;99262.31;;;16.37;57.98
24996;BME280;13016;52.162;21.034;2023-04-25T08:47:58;99269.41;;;16.16;58.18
24996;BME280;13016;52.162;21.034;2023-04-25T08:54:10;99275.58;;;16.20;57.82
24996;BME280;13016;52.162;21.034;2023-04-25T09:00:12;99284.30;;;16.15;58.42
24996;BME280;13016;52.162;21.034;2023-04-25T09:06:12;99283.20;;;16.12;58.41
24996;BME280;13016;52.162;21.034;2023-04-25T09:12:13;99289.81;;;16.12;58.51
24996;BME280;13016;52.162;21.034;2023-04-25T09:18:22;99299.03;;;16.07;58.99
24996;BME280;13016;52.162;21.034;2023-04-25T09:24:44;99307.07;;;15.89;59.63
24996;BME280;13016;52.162;21.034;2023-04-25T09:30:44;99315.44;;;16.02;59.46
24996;BME280;13016;52.162;21.034;2023-04-25T09:36:47;99324.38;;;16.06;58.81
24996;BME280;13016;52.162;21.034;2023-04-25T09:42:47;99327.73;;;16.34;58.69
24996;BME280;13016;52.162;21.034;2023-04-25T09:48:50;99330.06;;;16.41;58.31
24996;BME280;13016;52.162;21.034;2023-04-25T09:54:51;99332.98;;;16.42;58.43
24996;BME280;13016;52.162;21.034;2023-04-25T10:00:52;99330.23;;;16.41;58.10
24996;BME280;13016;52.162;21.034;2023-04-25T10:06:56;99333.09;;;16.32;57.94
24996;BME280;13016;52.162;21.034;2023-04-25T10:12:56;99333.46;;;16.21;58.23
24996;BME280;13016;52.162;21.034;2023-04-25T10:18:57;99336.30;;;16.29;58.49
24996;BME280;13016;52.162;21.034;2023-04-25T10:24:58;99334.52;;;16.23;58.15
24996;BME280;13016;52.162;21.034;2023-04-25T10:37:00;99338.58;;;16.19;58.54
24996;BME280;13016;52.162;21.034;2023-04-25T10:49:42;99335.50;;;16.33;57.75
24996;BME280;13016;52.162;21.034;2023-04-25T10:55:51;99339.52;;;16.49;57.57
24996;BME280;13016;52.162;21.034;2023-04-25T11:01:53;99338.19;;;16.47;57.53
24996;BME280;13016;52.162;21.034;2023-04-25T11:07:54;99343.27;;;16.35;57.12
24996;BME280;13016;52.162;21.034;2023-04-25T11:13:55;99343.94;;;16.36;56.58
24996;BME280;13016;52.162;21.034;2023-04-25T11:19:55;99344.20;;;16.35;56.18
24996;BME280;13016;52.162;21.034;2023-04-25T11:25:56;99343.66;;;16.47;55.69
24996;BME280;13016;52.162;21.034;2023-04-25T11:31:57;99344.89;;;16.44;55.50
24996;BME280;13016;52.162;21.034;2023-04-25T11:37:57;99344.80;;;16.78;54.52
24996;BME280;13016;52.162;21.034;2023-04-25T11:43:58;99343.54;;;16.88;53.78
24996;BME280;13016;52.162;21.034;2023-04-25T11:50:02;99343.34;;;17.00;53.01
24996;BME280;13016;52.162;21.034;2023-04-25T11:56:09;99344.27;;;16.84;52.11
24996;BME280;13016;52.162;21.034;2023-04-25T12:02:24;99342.22;;;16.58;51.74
24996;BME280;13016;52.162;21.034;2023-04-25T12:08:24;99343.02;;;16.61;51.70
24996;BME280;13016;52.162;21.034;2023-04-25T12:14:26;99339.27;;;16.76;51.45
24996;BME280;13016;52.162;21.034;2023-04-25T12:20:27;99340.73;;;16.74;51.39
24996;BME280;13016;52.162;21.034;2023-04-25T12:26:47;99337.98;;;16.68;50.65
24996;BME280;13016;52.162;21.034;2023-04-25T12:32:48;99342.87;;;16.65;50.13
24996;BME280;13016;52.162;21.034;2023-04-25T12:38:48;99340.52;;;16.78;49.76
24996;BME280;13016;52.162;21.034;2023-04-25T12:44:48;99331.66;;;16.70;49.16
24996;BME280;13016;52.162;21.034;2023-04-25T12:50:50;99333.45;;;16.74;49.44
24996;BME280;13016;52.162;21.034;2023-04-25T12:56:51;99331.63;;;16.79;49.22
24996;BME280;13016;52.162;21.034;2023-04-25T13:02:51;99331.80;;;16.76;49.44
24996;BME280;13016;52.162;21.034;2023-04-25T13:08:54;99326.02;;;16.85;49.70
24996;BME280;13016;52.162;21.034;2023-04-25T13:14:55;99326.60;;;16.78;48.91
24996;BME280;13016;52.162;21.034;2023-04-25T13:50:44;99316.73;;;16.75;49.40
24996;BME280;13016;52.162;21.034;2023-04-25T13:56:44;99315.92;;;16.54;50.17
24996;BME280;13016;52.162;21.034;2023-04-25T14:02:44;99320.54;;;16.70;50.83
24996;BME280;13016;52.162;21.034;2023-04-25T14:08:45;99319.40;;;16.80;50.82
24996;BME280;13016;52.162;21.034;2023-04-25T14:14:45;99317.53;;;16.74;50.99
24996;BME280;13016;52.162;21.034;2023-04-25T14:20:45;99318.94;;;16.81;51.87
24996;BME280;13016;52.162;21.034;2023-04-25T14:26:46;99317.79;;;16.79;51.90
24996;BME280;13016;52.162;21.034;2023-04-25T14:32:48;99318.99;;;16.72;52.03
24996;BME280;13016;52.162;21.034;2023-04-25T15:00:00;99332.23;;;16.67;54.69
24996;BME280;13016;52.162;21.034;2023-04-25T15:21:46;99332.47;;;16.63;56.05
24996;BME280;13016;52.162;21.034;2023-04-25T15:27:46;99333.28;;;16.56;56.42
24996;BME280;13016;52.162;21.034;2023-04-25T15:34:07;99333.23;;;16.43;56.69
24996;BME280;13016;52.162;21.034;2023-04-25T15:40:25;99333.63;;;16.41;56.85
24996;BME280;13016;52.162;21.034;2023-04-25T15:46:28;99334.70;;;16.32;56.40
24996;BME280;13016;52.162;21.034;2023-04-25T15:52:29;99332.91;;;16.20;55.28
24996;BME280;13016;52.162;21.034;2023-04-25T15:58:29;99342.39;;;16.02;54.99
24996;BME280;13016;52.162;21.034;2023-04-25T16:04:34;99341.56;;;15.83;55.27
24996;BME280;13016;52.162;21.034;2023-04-25T16:10:35;99345.55;;;15.74;55.06
24996;BME280;13016;52.162;21.034;2023-04-25T16:16:36;99354.64;;;15.75;55.80
24996;BME280;13016;52.162;21.034;2023-04-25T16:22:40;99352.81;;;15.63;56.71
24996;BME280;13016;52.162;21.034;2023-04-25T16:28:44;99361.38;;;15.59;56.90
24996;BME280;13016;52.162;21.034;2023-04-25T16:34:50;99365.40;;;15.29;56.05
24996;BME280;13016;52.162;21.034;2023-04-25T16:40:54;99372.40;;;15.08;56.13
24996;BME280;13016;52.162;21.034;2023-04-25T16:46:55;99375.80;;;15.11;55.12
24996;BME280;13016;52.162;21.034;2023-04-25T16:52:56;99377.85;;;15.18;55.82
24996;BME280;13016;52.162;21.034;2023-04-25T16:58:56;99380.45;;;14.96;57.09
24996;BME280;13016;52.162;21.034;2023-04-25T17:04:56;99384.48;;;14.72;58.31
24996;BME280;13016;52.162;21.034;2023-04-25T17:10:57;99386.61;;;14.83;58.29
24996;BME280;13016;52.162;21.034;2023-04-25T17:16:57;99390.39;;;14.58;58.71
24996;BME280;13016;52.162;21.034;2023-04-25T17:22:57;99396.83;;;14.52;59.23
24996;BME280;13016;52.162;21.034;2023-04-25T17:28:58;99399.38;;;14.42;59.01
24996;BME280;13016;52.162;21.034;2023-04-25T17:34:58;99405.40;;;14.44;59.15
24996;BME280;13016;52.162;21.034;2023-04-25T17:40:58;99407.92;;;14.36;59.52
24996;BME280;13016;52.162;21.034;2023-04-25T17:46:59;99414.64;;;14.40;59.29
24996;BME280;13016;52.162;21.034;2023-04-25T17:52:59;99416.94;;;14.23;59.15
24996;BME280;13016;52.162;21.034;2023-04-25T17:59:00;99427.28;;;14.20;59.44
24996;BME280;13016;52.162;21.034;2023-04-25T18:05:01;99434.59;;;14.27;59.69
24996;BME280;13016;52.162;21.034;2023-04-25T18:11:01;99445.52;;;14.27;59.58
24996;BME280;13016;52.162;21.034;2023-04-25T18:17:01;99459.80;;;14.29;59.53
24996;BME280;13016;52.162;21.034;2023-04-25T18:23:03;99467.00;;;14.24;59.76
24996;BME280;13016;52.162;21.034;2023-04-25T18:29:04;99472.04;;;14.19;59.80
24996;BME280;13016;52.162;21.034;2023-04-25T18:35:05;99479.70;;;14.19;59.94
24996;BME280;13016;52.162;21.034;2023-04-25T18:41:05;99487.23;;;14.14;60.43
24996;BME280;13016;52.162;21.034;2023-04-25T18:47:11;99493.15;;;14.11;60.56
24996;BME280;13016;52.162;21.034;2023-04-25T18:53:12;99500.80;;;14.03;60.82
24996;BME280;13016;52.162;21.034;2023-04-25T18:59:12;99502.98;;;14.01;60.89
24996;BME280;13016;52.162;21.034;2023-04-25T19:05:12;99507.23;;;13.97;61.16
24996;BME280;13016;52.162;21.034;2023-04-25T19:11:13;99505.66;;;14.00;61.42
24996;BME280;13016;52.162;21.034;2023-04-25T19:17:13;99512.17;;;13.91;62.02
24996;BME280;13016;52.162;21.034;2023-04-25T19:23:13;99521.15;;;13.94;62.25
24996;BME280;13016;52.162;21.034;2023-04-25T19:29:14;99519.63;;;13.99;62.25
24996;BME280;13016;52.162;21.034;2023-04-25T19:35:14;99522.84;;;13.99;62.38
24996;BME280;13016;52.162;21.034;2023-04-25T19:41:14;99529.24;;;14.02;62.23
24996;BME280;13016;52.162;21.034;2023-04-25T19:47:15;99525.13;;;13.95;62.33
24996;BME280;13016;52.162;21.034;2023-04-25T19:53:15;99524.40;;;13.81;62.88
24996;BME280;13016;52.162;21.034;2023-04-25T19:59:18;99526.77;;;13.76;63.20
24996;BME280;13016;52.162;21.034;2023-04-25T20:05:18;99523.42;;;13.76;63.53
24996;BME280;13016;52.162;21.034;2023-04-25T20:11:19;99521.67;;;13.78;63.57
24996;BME280;13016;52.162;21.034;2023-04-25T20:17:19;99523.09;;;13.82;63.27
24996;BME280;13016;52.162;21.034;2023-04-25T20:23:20;99526.15;;;13.65;63.62
24996;BME280;13016;52.162;21.034;2023-04-25T20:29:21;99528.08;;;13.71;63.94
24996;BME280;13016;52.162;21.034;2023-04-25T20:35:21;99528.02;;;13.70;64.09
24996;BME280;13016;52.162;21.034;2023-04-25T20:41:21;99521.91;;;13.69;64.07
24996;BME280;13016;52.162;21.034;2023-04-25T20:47:22;99525.00;;;13.66;64.12
24996;BME280;13016;52.162;21.034;2023-04-25T20:53:22;99529.93;;;13.73;64.15
24996;BME280;13016;52.162;21.034;2023-04-25T20:59:22;99528.27;;;13.69;64.35
24996;BME280;13016;52.162;21.034;2023-04-25T21:05:22;99528.98;;;13.67;64.51
24996;BME280;13016;52.162;21.034;2023-04-25T21:11:23;99534.37;;;13.66;64.61
24996;BME280;13016;52.162;21.034;2023-04-25T21:17:23;99528.76;;;13.62;64.64
24996;BME280;13016;52.162;21.034;2023-04-25T21:23:23;99524.83;;;13.50;65.02
24996;BME280;13016;52.162;21.034;2023-04-25T21:29:23;99525.67;;;13.55;64.87
24996;BME280;13016;52.162;21.034;2023-04-25T21:35:24;99526.42;;;13.62;65.01
24996;BME280;13016;52.162;21.034;2023-04-25T21:41:24;99526.02;;;13.52;65.06
24996;BME280;13016;52.162;21.034;2023-04-25T21:47:25;99527.41;;;13.55;65.23
24996;BME280;13016;52.162;21.034;2023-04-25T21:53:25;99524.94;;;13.45;65.91
24996;BME280;13016;52.162;21.034;2023-04-25T21:59:25;99522.73;;;13.60;65.99
24996;BME280;13016;52.162;21.034;2023-04-25T22:05:25;99520.73;;;13.54;65.96
24996;BME280;13016;52.162;21.034;2023-04-25T22:11:25;99528.20;;;13.68;65.86
24996;BME280;13016;52.162;21.034;2023-04-25T22:17:26;99524.52;;;13.66;65.78
24996;BME280;13016;52.162;21.034;2023-04-25T22:23:26;99526.46;;;13.68;65.82
24996;BME280;13016;52.162;21.034;2023-04-25T22:29:26;99534.98;;;13.35;66.59
24996;BME280;13016;52.162;21.034;2023-04-25T22:35:27;99542.30;;;13.26;66.28
24996;BME280;13016;52.162;21.034;2023-04-25T22:41:27;99544.41;;;13.14;64.88
24996;BME280;13016;52.162;21.034;2023-04-25T22:47:27;99545.81;;;12.95;64.55
24996;BME280;13016;52.162;21.034;2023-04-25T22:53:27;99550.91;;;13.02;64.41
24996;BME280;13016;52.162;21.034;2023-04-25T22:59:28;99558.91;;;13.02;63.89
24996;BME280;13016;52.162;21.034;2023-04-25T23:05:28;99560.02;;;12.90;63.50
24996;BME280;13016;52.162;21.034;2023-04-25T23:11:28;99568.73;;;12.58;63.91
24996;BME280;13016;52.162;21.034;2023-04-25T23:17:29;99572.30;;;12.57;64.13
24996;BME280;13016;52.162;21.034;2023-04-25T23:23:29;99576.36;;;12.66;64.07
24996;BME280;13016;52.162;21.034;2023-04-25T23:29:29;99578.86;;;12.51;64.48
24996;BME280;13016;52.162;21.034;2023-04-25T23:35:30;99577.33;;;12.61;64.41
24996;BME280;13016;52.162;21.034;2023-04-25T23:41:33;99578.39;;;12.65;65.03
24996;BME280;13016;52.162;21.034;2023-04-25T23:47:34;99581.95;;;12.56;64.54
24996;BME280;13016;52.162;21.034;2023-04-25T23:53:35;99587.27;;;12.54;64.44
24996;BME280;13016;52.162;21.034;2023-04-25T23:59:35;99586.64;;;12.77;64.08
